Time,TemperatureF,DewpointF,PressureIn,WindDirection,WindDirectionDegrees,WindSpeedMPH,WindSpeedGustMPH,Humidity,HourlyPrecipIn,Conditions,Clouds,dailyrainin,SoftwareType,DateUTC
2013-05-20 00:03:00,57.0,51.5,28.14,North,0,0.0,0.0,82,0.00,,,0.00,WUHU216HW,2013-05-20 05:03:00,
2013-05-20 00:08:00,56.8,51.3,28.14,North,0,0.0,0.0,82,0.00,,,0.00,WUHU216HW,2013-05-20 05:08:00,
2013-05-20 00:13:00,56.4,51.0,28.14,North,0,0.0,0.0,82,0.00,,,0.00,WUHU216HW,2013-05-20 05:13:00,
2013-05-20 00:18:00,56.3,50.8,28.15,North,0,0.0,0.0,82,0.00,,,0.00,WUHU216HW,2013-05-20 05:18:00,
2013-05-20 00:23:00,56.1,50.9,28.15,North,0,1.7,1.7,83,0.00,,,0.00,WUHU216HW,2013-05-20 05:23:00,
2013-05-20 00:28:00,56.1,50.9,28.16,North,0,0.0,1.7,83,0.00,,,0.00,WUHU216HW,2013-05-20 05:28:00,
2013-05-20 00:33:00,56.1,50.9,28.17,North,0,0.4,1.7,83,0.00,,,0.00,WUHU216HW,2013-05-20 05:33:00,
2013-05-20 00:38:00,56.3,51.1,28.20,NNW,338,0.0,2.0,83,0.00,,,0.00,WUHU216HW,2013-05-20 05:38:00,
2013-05-20 00:43:00,56.4,51.3,28.19,NNW,338,0.0,2.0,83,0.00,,,0.00,WUHU216HW,2013-05-20 05:43:00,
2013-05-20 00:48:00,56.4,51.3,28.17,SW,225,3.3,3.3,83,0.00,,,0.00,WUHU216HW,2013-05-20 05:48:00,
2013-05-20 00:53:00,56.8,52.0,28.16,SW,225,2.6,5.3,84,0.00,,,0.00,WUHU216HW,2013-05-20 05:53:00,
2013-05-20 00:58:00,57.0,52.1,28.16,SW,225,3.3,5.3,84,0.00,,,0.00,WUHU216HW,2013-05-20 05:58:00,
2013-05-20 01:03:00,57.0,52.1,28.17,SSW,203,3.8,7.1,84,0.00,,,0.00,WUHU216HW,2013-05-20 06:03:00,
2013-05-20 01:08:00,57.3,52.5,28.16,SSW,203,2.0,7.1,84,0.00,,,0.00,WUHU216HW,2013-05-20 06:08:00,
2013-05-20 01:13:00,57.3,52.5,28.17,SSW,203,1.7,2.6,84,0.00,,,0.00,WUHU216HW,2013-05-20 06:13:00,
2013-05-20 01:18:00,57.3,52.5,28.18,SSW,203,1.1,2.2,84,0.00,,,0.00,WUHU216HW,2013-05-20 06:18:00,
2013-05-20 01:23:00,57.2,52.3,28.18,SSW,203,5.5,6.7,84,0.00,,,0.00,WUHU216HW,2013-05-20 06:23:00,
2013-05-20 01:28:00,57.2,52.3,28.18,SSW,203,9.3,9.3,84,0.00,,,0.00,WUHU216HW,2013-05-20 06:28:00,
2013-05-20 01:33:00,57.3,52.8,28.19,SSW,203,7.3,9.3,85,0.00,,,0.00,WUHU216HW,2013-05-20 06:33:00,
2013-05-20 01:38:00,57.3,52.8,28.19,South,180,7.3,9.3,85,0.00,,,0.00,WUHU216HW,2013-05-20 06:38:00,
2013-05-20 01:43:00,57.3,52.8,28.19,South,180,8.0,9.6,85,0.00,,,0.00,WUHU216HW,2013-05-20 06:43:00,
2013-05-20 01:48:00,57.5,53.0,28.18,South,180,8.2,9.6,85,0.00,,,0.00,WUHU216HW,2013-05-20 06:48:00,
2013-05-20 01:53:00,57.5,53.0,28.18,South,180,6.9,8.2,85,0.00,,,0.00,WUHU216HW,2013-05-20 06:53:00,
2013-05-20 01:58:00,57.5,53.0,28.17,South,180,9.8,9.8,85,0.00,,,0.00,WUHU216HW,2013-05-20 06:58:00,
2013-05-20 02:03:00,57.5,53.0,28.17,SSW,203,4.2,9.8,85,0.00,,,0.00,WUHU216HW,2013-05-20 07:03:00,
2013-05-20 02:08:00,57.5,53.0,28.16,South,180,5.1,9.8,85,0.00,,,0.00,WUHU216HW,2013-05-20 07:08:00,
2013-05-20 02:13:00,57.5,53.0,28.16,South,180,6.9,6.9,85,0.00,,,0.00,WUHU216HW,2013-05-20 07:13:00,
2013-05-20 02:18:00,57.3,52.8,28.16,South,180,6.7,6.9,85,0.00,,,0.00,WUHU216HW,2013-05-20 07:18:00,
2013-05-20 02:23:00,57.3,52.8,28.15,South,180,4.2,6.7,85,0.00,,,0.00,WUHU216HW,2013-05-20 07:23:00,
2013-05-20 02:28:00,57.3,53.2,28.15,South,180,3.1,6.7,86,0.00,,,0.00,WUHU216HW,2013-05-20 07:28:00,
2013-05-20 02:33:00,57.3,53.2,28.15,South,180,5.3,7.6,86,0.00,,,0.00,WUHU216HW,2013-05-20 07:33:00,
2013-05-20 02:38:00,57.3,53.2,28.15,South,180,5.3,7.6,86,0.00,,,0.00,WUHU216HW,2013-05-20 07:38:00,
2013-05-20 02:43:00,57.3,53.2,28.15,South,180,2.9,6.4,86,0.00,,,0.00,WUHU216HW,2013-05-20 07:43:00,
2013-05-20 02:48:00,57.0,52.8,28.15,South,180,3.1,6.7,86,0.00,,,0.00,WUHU216HW,2013-05-20 07:48:00,
2013-05-20 02:53:00,57.0,52.8,28.16,South,180,5.1,6.7,86,0.00,,,0.00,WUHU216HW,2013-05-20 07:53:00,
2013-05-20 02:58:00,57.0,52.8,28.16,South,180,6.4,7.3,86,0.00,,,0.00,WUHU216HW,2013-05-20 07:58:00,
2013-05-20 03:03:00,57.0,52.8,28.16,South,180,6.7,7.6,86,0.00,,,0.00,WUHU216HW,2013-05-20 08:03:00,
2013-05-20 03:08:00,57.0,52.8,28.16,South,180,6.0,7.6,86,0.00,,,0.00,WUHU216HW,2013-05-20 08:08:00,
2013-05-20 03:13:00,57.0,52.8,28.16,South,180,0.6,6.7,86,0.00,,,0.00,WUHU216HW,2013-05-20 08:13:00,
2013-05-20 03:18:00,56.8,52.3,28.16,South,180,6.7,6.7,85,0.00,,,0.00,WUHU216HW,2013-05-20 08:18:00,
2013-05-20 03:23:00,56.8,52.3,28.16,South,180,5.1,6.7,85,0.00,,,0.00,WUHU216HW,2013-05-20 08:23:00,
2013-05-20 03:29:00,56.6,52.4,28.16,South,180,7.1,7.1,86,0.00,,,0.00,WUHU216HW,2013-05-20 08:29:00,
2013-05-20 03:34:00,56.4,52.3,28.16,South,180,3.1,7.1,86,0.00,,,0.00,WUHU216HW,2013-05-20 08:34:00,
2013-05-20 03:39:00,56.4,52.3,28.16,South,180,2.9,6.2,86,0.00,,,0.00,WUHU216HW,2013-05-20 08:39:00,
2013-05-20 03:44:00,56.4,52.3,28.16,South,180,7.1,8.0,86,0.00,,,0.00,WUHU216HW,2013-05-20 08:44:00,
2013-05-20 03:49:00,56.4,52.3,28.17,South,180,6.4,8.0,86,0.00,,,0.00,WUHU216HW,2013-05-20 08:49:00,
2013-05-20 03:54:00,56.4,51.9,28.17,South,180,4.2,7.6,85,0.00,,,0.00,WUHU216HW,2013-05-20 08:54:00,
2013-05-20 03:59:00,56.3,51.8,28.17,South,180,1.3,7.6,85,0.00,,,0.00,WUHU216HW,2013-05-20 08:59:00,
2013-05-20 04:04:00,56.3,51.8,28.16,South,180,2.4,2.4,85,0.00,,,0.00,WUHU216HW,2013-05-20 09:04:00,
2013-05-20 04:09:00,56.1,51.6,28.16,South,180,3.5,4.2,85,0.00,,,0.00,WUHU216HW,2013-05-20 09:09:00,
2013-05-20 04:14:00,56.1,51.6,28.16,South,180,3.1,4.2,85,0.00,,,0.00,WUHU216HW,2013-05-20 09:14:00,
2013-05-20 04:19:00,56.1,51.6,28.16,SSW,203,2.6,4.2,85,0.00,,,0.00,WUHU216HW,2013-05-20 09:19:00,
2013-05-20 04:24:00,56.1,51.6,28.16,SSW,203,3.3,5.1,85,0.00,,,0.00,WUHU216HW,2013-05-20 09:24:00,
2013-05-20 04:29:00,56.1,51.6,28.16,SSW,203,2.4,5.1,85,0.00,,,0.00,WUHU216HW,2013-05-20 09:29:00,
2013-05-20 04:34:00,56.1,51.6,28.15,SSW,203,2.4,3.5,85,0.00,,,0.00,WUHU216HW,2013-05-20 09:34:00,
2013-05-20 04:39:00,56.1,51.7,28.14,East,90,2.2,2.4,85,0.00,,,0.00,WUHU216HW,2013-05-20 09:39:00,
2013-05-20 04:44:00,56.1,51.6,28.14,SSW,203,3.3,3.3,85,0.00,,,0.00,WUHU216HW,2013-05-20 09:44:00,
2013-05-20 04:49:00,55.9,51.4,28.13,SSW,203,2.9,3.3,85,0.00,,,0.00,WUHU216HW,2013-05-20 09:49:00,
2013-05-20 04:54:00,55.9,51.4,28.13,SSW,203,5.3,5.3,85,0.00,,,0.00,WUHU216HW,2013-05-20 09:54:00,
2013-05-20 04:59:00,55.9,51.4,28.14,SSW,203,4.2,5.3,85,0.00,,,0.00,WUHU216HW,2013-05-20 09:59:00,
2013-05-20 05:04:00,55.9,51.4,28.14,SSW,203,3.5,4.2,85,0.00,,,0.00,WUHU216HW,2013-05-20 10:04:00,
2013-05-20 05:09:00,55.9,51.4,28.15,SSW,203,3.1,4.2,85,0.00,,,0.00,WUHU216HW,2013-05-20 10:09:00,
2013-05-20 05:14:00,55.9,51.4,28.15,SSW,203,3.5,4.2,85,0.00,,,0.00,WUHU216HW,2013-05-20 10:14:00,
2013-05-20 05:19:00,55.9,51.4,28.16,SSW,203,4.0,6.2,85,0.00,,,0.00,WUHU216HW,2013-05-20 10:19:00,
2013-05-20 05:24:00,56.1,51.6,28.16,SSW,203,3.5,6.2,85,0.00,,,0.00,WUHU216HW,2013-05-20 10:24:00,
2013-05-20 05:29:00,56.3,51.8,28.17,SSW,203,4.4,5.3,85,0.00,,,0.00,WUHU216HW,2013-05-20 10:29:00,
2013-05-20 05:34:00,56.3,51.8,28.17,SSW,203,5.8,5.8,85,0.00,,,0.00,WUHU216HW,2013-05-20 10:34:00,
2013-05-20 05:39:00,56.4,51.9,28.17,SSW,203,4.9,6.2,85,0.00,,,0.00,WUHU216HW,2013-05-20 10:39:00,
2013-05-20 05:44:00,56.4,51.9,28.17,SSW,203,6.2,6.2,85,0.00,,,0.00,WUHU216HW,2013-05-20 10:44:00,
2013-05-20 05:49:00,56.4,51.9,28.17,South,180,5.1,6.2,85,0.00,,,0.00,WUHU216HW,2013-05-20 10:49:00,
2013-05-20 05:54:00,56.6,52.1,28.17,South,180,3.1,6.2,85,0.00,,,0.00,WUHU216HW,2013-05-20 10:54:00,
2013-05-20 05:59:00,56.6,52.1,28.17,South,180,4.2,4.9,85,0.00,,,0.00,WUHU216HW,2013-05-20 10:59:00,
2013-05-20 06:04:00,56.6,52.1,28.18,SSW,203,5.5,5.5,85,0.00,,,0.00,WUHU216HW,2013-05-20 11:04:00,
2013-05-20 06:09:00,56.8,52.0,28.18,SSW,203,2.6,5.5,84,0.00,,,0.00,WUHU216HW,2013-05-20 11:09:00,
2013-05-20 06:14:00,56.8,52.0,28.18,SSW,203,4.4,5.3,84,0.00,,,0.00,WUHU216HW,2013-05-20 11:14:00,
2013-05-20 06:19:00,56.8,52.0,28.18,SSW,203,5.1,5.5,84,0.00,,,0.00,WUHU216HW,2013-05-20 11:19:00,
2013-05-20 06:24:00,56.8,52.0,28.18,SW,225,5.8,6.0,84,0.00,,,0.00,WUHU216HW,2013-05-20 11:24:00,
2013-05-20 06:29:00,57.0,52.1,28.18,SW,225,5.1,6.0,84,0.00,,,0.00,WUHU216HW,2013-05-20 11:29:00,
2013-05-20 06:34:00,57.0,52.1,28.18,SW,225,4.9,7.6,84,0.00,,,0.00,WUHU216HW,2013-05-20 11:34:00,
2013-05-20 06:39:00,57.3,52.3,28.19,SW,225,5.3,7.6,84,0.00,,,0.00,WUHU216HW,2013-05-20 11:39:00,
2013-05-20 06:44:00,57.3,52.5,28.19,SW,225,3.3,5.3,84,0.00,,,0.00,WUHU216HW,2013-05-20 11:44:00,
2013-05-20 06:49:00,57.5,52.7,28.19,SW,225,4.2,5.3,84,0.00,,,0.00,WUHU216HW,2013-05-20 11:49:00,
2013-05-20 06:54:00,57.5,52.7,28.19,SW,225,3.1,4.9,84,0.00,,,0.00,WUHU216HW,2013-05-20 11:54:00,
2013-05-20 06:59:00,57.7,52.9,28.20,SW,225,3.1,6.4,84,0.00,,,0.00,WUHU216HW,2013-05-20 11:59:00,
2013-05-20 07:04:00,57.7,52.9,28.20,SW,225,0.0,6.4,84,0.00,,,0.00,WUHU216HW,2013-05-20 12:04:00,
2013-05-20 07:09:00,57.9,53.4,28.20,SW,225,2.2,3.3,85,0.00,,,0.00,WUHU216HW,2013-05-20 12:09:00,
2013-05-20 07:14:00,58.1,53.6,28.21,SW,225,5.1,5.1,85,0.00,,,0.00,WUHU216HW,2013-05-20 12:14:00,
2013-05-20 07:19:00,58.2,53.7,28.21,WSW,248,6.2,6.2,85,0.00,,,0.00,WUHU216HW,2013-05-20 12:19:00,
2013-05-20 07:24:00,58.6,53.8,28.21,WSW,248,0.2,6.2,84,0.02,,,0.02,WUHU216HW,2013-05-20 12:24:00,
2013-05-20 07:29:00,58.8,53.9,28.22,WSW,248,3.3,4.2,84,0.02,,,0.02,WUHU216HW,2013-05-20 12:29:00,
2013-05-20 07:34:00,58.8,53.9,28.21,WSW,248,1.1,3.3,84,0.02,,,0.02,WUHU216HW,2013-05-20 12:34:00,
2013-05-20 07:39:00,58.8,53.6,28.22,WSW,248,3.1,3.3,83,0.02,,,0.02,WUHU216HW,2013-05-20 12:39:00,
2013-05-20 07:44:00,58.8,53.6,28.23,SW,225,2.4,3.1,83,0.02,,,0.02,WUHU216HW,2013-05-20 12:44:00,
2013-05-20 07:49:00,59.1,54.0,28.23,SW,225,4.4,4.4,83,0.02,,,0.02,WUHU216HW,2013-05-20 12:49:00,
2013-05-20 07:55:00,60.2,54.5,28.23,SW,225,3.5,4.4,82,0.02,,,0.02,WUHU216HW,2013-05-20 12:55:00,
2013-05-20 08:00:00,60.9,55.1,28.24,SW,225,0.0,4.2,81,0.02,,,0.02,WUHU216HW,2013-05-20 13:00:00,
2013-05-20 08:05:00,61.5,55.3,28.24,WNW,293,2.9,3.5,80,0.02,,,0.02,WUHU216HW,2013-05-20 13:05:00,
2013-05-20 08:10:00,62.2,55.2,28.24,WSW,248,0.8,2.9,78,0.02,,,0.02,WUHU216HW,2013-05-20 13:10:00,
2013-05-20 08:15:00,62.7,55.4,28.24,WSW,248,2.4,3.1,77,0.02,,,0.02,WUHU216HW,2013-05-20 13:15:00,
2013-05-20 08:20:00,63.1,55.7,28.25,WSW,248,6.0,6.0,77,0.02,,,0.02,WUHU216HW,2013-05-20 13:20:00,
2013-05-20 08:25:00,63.3,55.2,28.24,WSW,248,0.0,6.0,75,0.00,,,0.02,WUHU216HW,2013-05-20 13:25:00,
2013-05-20 08:30:00,63.3,55.2,28.25,WSW,248,3.3,3.3,75,0.00,,,0.02,WUHU216HW,2013-05-20 13:30:00,
2013-05-20 08:35:00,63.1,55.0,28.25,WSW,248,0.0,7.3,75,0.00,,,0.02,WUHU216HW,2013-05-20 13:35:00,
2013-05-20 08:40:00,63.3,55.0,28.25,SW,225,2.9,7.3,74,0.00,,,0.02,WUHU216HW,2013-05-20 13:40:00,
2013-05-20 08:45:00,63.6,55.2,28.24,West,270,1.5,6.4,74,0.00,,,0.02,WUHU216HW,2013-05-20 13:45:00,
2013-05-20 08:50:00,64.2,55.4,28.25,South,180,5.8,7.6,73,0.00,,,0.02,WUHU216HW,2013-05-20 13:50:00,
2013-05-20 08:55:00,64.5,55.3,28.25,SSW,203,4.9,7.6,72,0.00,,,0.02,WUHU216HW,2013-05-20 13:55:00,
2013-05-20 09:00:00,64.5,55.0,28.25,SSW,203,4.4,6.9,71,0.00,,,0.02,WUHU216HW,2013-05-20 14:00:00,
2013-05-20 09:05:00,64.7,55.1,28.25,WSW,248,4.9,6.9,71,0.00,,,0.02,WUHU216HW,2013-05-20 14:05:00,
2013-05-20 09:10:00,64.9,55.3,28.25,SW,225,5.1,5.1,71,0.00,,,0.02,WUHU216HW,2013-05-20 14:10:00,
2013-05-20 09:15:00,65.1,55.5,28.26,West,270,0.0,5.1,71,0.00,,,0.02,WUHU216HW,2013-05-20 14:15:00,
2013-05-20 09:20:00,65.6,55.6,28.25,SSW,203,2.4,5.1,70,0.00,,,0.02,WUHU216HW,2013-05-20 14:20:00,
2013-05-20 09:25:00,66.0,55.9,28.26,WSW,248,3.5,4.2,70,0.00,,,0.02,WUHU216HW,2013-05-20 14:25:00,
2013-05-20 09:30:00,66.0,55.9,28.26,WSW,248,0.8,4.2,70,0.00,,,0.02,WUHU216HW,2013-05-20 14:30:00,
2013-05-20 09:35:00,66.0,55.9,28.26,WSW,248,1.7,3.3,70,0.00,,,0.02,WUHU216HW,2013-05-20 14:35:00,
2013-05-20 09:40:00,66.0,55.5,28.26,WNW,293,0.0,3.3,69,0.00,,,0.02,WUHU216HW,2013-05-20 14:40:00,
2013-05-20 09:45:00,66.3,55.8,28.26,WSW,248,4.9,4.9,69,0.00,,,0.02,WUHU216HW,2013-05-20 14:45:00,
2013-05-20 09:50:00,66.7,55.8,28.26,WSW,248,0.8,8.2,68,0.00,,,0.02,WUHU216HW,2013-05-20 14:50:00,
2013-05-20 09:55:00,67.1,56.1,28.26,West,270,5.1,8.2,68,0.00,,,0.02,WUHU216HW,2013-05-20 14:55:00,
2013-05-20 10:00:00,67.2,56.3,28.26,SW,225,6.7,7.1,68,0.00,,,0.02,WUHU216HW,2013-05-20 15:00:00,
2013-05-20 10:05:00,67.2,55.9,28.27,SW,225,4.6,7.1,67,0.00,,,0.02,WUHU216HW,2013-05-20 15:05:00,
2013-05-20 10:10:00,67.2,55.4,28.26,SW,225,0.2,5.5,66,0.00,,,0.02,WUHU216HW,2013-05-20 15:10:00,
2013-05-20 10:15:00,67.6,55.8,28.26,SW,225,5.1,5.1,66,0.00,,,0.02,WUHU216HW,2013-05-20 15:15:00,
2013-05-20 10:20:00,67.4,55.2,28.26,WSW,248,5.5,5.5,65,0.00,,,0.02,WUHU216HW,2013-05-20 15:20:00,
2013-05-20 10:25:00,67.2,55.0,28.26,WSW,248,7.6,7.6,65,0.00,,,0.02,WUHU216HW,2013-05-20 15:25:00,
2013-05-20 10:30:00,67.6,55.4,28.26,WSW,248,4.2,7.6,65,0.00,,,0.02,WUHU216HW,2013-05-20 15:30:00,
2013-05-20 10:35:00,67.8,55.5,28.27,SW,225,4.6,7.6,65,0.00,,,0.02,WUHU216HW,2013-05-20 15:35:00,
2013-05-20 10:40:00,68.1,55.4,28.27,SW,225,4.4,7.6,64,0.00,,,0.02,WUHU216HW,2013-05-20 15:40:00,
2013-05-20 10:45:00,67.8,55.1,28.27,SW,225,6.9,9.1,64,0.00,,,0.02,WUHU216HW,2013-05-20 15:45:00,
2013-05-20 10:50:00,68.1,55.4,28.27,SW,225,2.9,9.1,64,0.00,,,0.02,WUHU216HW,2013-05-20 15:50:00,
2013-05-20 10:56:00,68.7,56.0,28.26,SW,225,0.0,7.3,64,0.00,,,0.02,WUHU216HW,2013-05-20 15:56:00,
2013-05-20 11:01:00,69.0,55.9,28.25,WSW,248,5.1,5.1,63,0.00,,,0.02,WUHU216HW,2013-05-20 16:01:00,
2013-05-20 11:06:00,69.4,56.2,28.26,SW,225,3.8,6.0,63,0.00,,,0.02,WUHU216HW,2013-05-20 16:06:00,
2013-05-20 11:11:00,69.4,56.6,28.26,SW,225,4.4,6.0,64,0.00,,,0.02,WUHU216HW,2013-05-20 16:11:00,
2013-05-20 11:16:00,69.6,56.4,28.26,WSW,248,5.3,5.3,63,0.00,,,0.02,WUHU216HW,2013-05-20 16:16:00,
2013-05-20 11:21:00,69.8,56.2,28.27,WSW,248,6.4,8.2,62,0.00,,,0.02,WUHU216HW,2013-05-20 16:21:00,
2013-05-20 11:26:00,69.9,55.9,28.26,SW,225,3.5,8.2,61,0.00,,,0.02,WUHU216HW,2013-05-20 16:26:00,
2013-05-20 11:31:00,70.3,56.7,28.26,SW,225,0.0,6.7,62,0.00,,,0.02,WUHU216HW,2013-05-20 16:31:00,
2013-05-20 11:36:00,70.3,56.3,28.26,WSW,248,0.0,7.6,61,0.00,,,0.02,WUHU216HW,2013-05-20 16:36:00,
2013-05-20 11:41:00,70.7,56.6,28.26,SW,225,0.0,7.6,61,0.00,,,0.02,WUHU216HW,2013-05-20 16:41:00,
2013-05-20 11:46:00,70.8,57.2,28.25,WSW,248,0.0,6.2,62,0.00,,,0.02,WUHU216HW,2013-05-20 16:46:00,
2013-05-20 11:51:00,71.2,57.1,28.26,WSW,248,5.8,6.2,61,0.00,,,0.02,WUHU216HW,2013-05-20 16:51:00,
2013-05-20 11:56:00,71.4,57.2,28.27,SW,225,0.0,5.8,61,0.00,,,0.02,WUHU216HW,2013-05-20 16:56:00,
2013-05-20 12:01:00,71.4,57.2,28.27,WSW,248,0.0,6.4,61,0.00,,,0.02,WUHU216HW,2013-05-20 17:01:00,
2013-05-20 12:06:00,71.4,57.2,28.27,SW,225,8.0,8.0,61,0.00,,,0.02,WUHU216HW,2013-05-20 17:06:00,
2013-05-20 12:11:00,71.2,57.1,28.27,SW,225,0.0,8.0,61,0.00,,,0.02,WUHU216HW,2013-05-20 17:11:00,
2013-05-20 12:16:00,71.2,57.1,28.26,WSW,248,7.3,8.0,61,0.00,,,0.02,WUHU216HW,2013-05-20 17:16:00,
2013-05-20 12:21:00,70.8,56.3,28.26,WSW,248,3.8,7.3,60,0.00,,,0.02,WUHU216HW,2013-05-20 17:21:00,
2013-05-20 12:26:00,70.8,56.3,28.26,SW,225,5.3,7.3,60,0.00,,,0.02,WUHU216HW,2013-05-20 17:26:00,
2013-05-20 12:31:00,70.8,56.7,28.26,SW,225,6.0,6.0,61,0.00,,,0.02,WUHU216HW,2013-05-20 17:31:00,
2013-05-20 12:36:00,70.8,56.7,28.26,WSW,248,4.0,10.0,61,0.00,,,0.02,WUHU216HW,2013-05-20 17:36:00,
2013-05-20 12:41:00,71.0,56.9,28.26,SW,225,8.2,10.0,61,0.00,,,0.02,WUHU216HW,2013-05-20 17:41:00,
2013-05-20 12:46:00,71.2,57.1,28.25,SW,225,4.6,8.2,61,0.00,,,0.02,WUHU216HW,2013-05-20 17:46:00,
2013-05-20 12:51:00,71.6,57.4,28.26,SSW,203,5.8,8.2,61,0.00,,,0.02,WUHU216HW,2013-05-20 17:51:00,
2013-05-20 12:56:00,72.3,57.8,28.27,SW,225,7.6,11.8,60,0.00,,,0.02,WUHU216HW,2013-05-20 17:56:00,
2013-05-20 13:01:00,72.6,58.5,28.27,SW,225,10.5,12.3,61,0.00,,,0.02,WUHU216HW,2013-05-20 18:01:00,
2013-05-20 13:06:00,73.2,58.4,28.27,SW,225,8.2,12.3,60,0.00,,,0.02,WUHU216HW,2013-05-20 18:06:00,
2013-05-20 13:11:00,72.6,56.9,28.27,SW,225,8.2,10.5,58,0.00,,,0.02,WUHU216HW,2013-05-20 18:11:00,
2013-05-20 13:16:00,72.1,56.4,28.26,SW,225,8.7,8.7,58,0.00,,,0.02,WUHU216HW,2013-05-20 18:16:00,
2013-05-20 13:21:00,71.9,56.8,28.25,SW,225,6.0,8.7,59,0.00,,,0.02,WUHU216HW,2013-05-20 18:21:00,
2013-05-20 13:26:00,72.5,57.8,28.26,SW,225,7.3,8.9,60,0.00,,,0.02,WUHU216HW,2013-05-20 18:26:00,
2013-05-20 13:31:00,73.2,57.4,28.26,SW,225,6.4,8.9,58,0.00,,,0.02,WUHU216HW,2013-05-20 18:31:00,
2013-05-20 13:36:00,73.0,57.3,28.26,SSW,203,17.0,17.0,58,0.00,,,0.02,WUHU216HW,2013-05-20 18:36:00,
2013-05-20 13:41:00,73.2,57.4,28.26,SW,225,11.8,17.0,58,0.00,,,0.02,WUHU216HW,2013-05-20 18:41:00,
2013-05-20 13:46:00,73.7,57.4,28.26,SW,225,7.8,11.8,57,0.00,,,0.02,WUHU216HW,2013-05-20 18:46:00,
2013-05-20 13:51:00,74.1,57.8,28.27,West,270,4.9,11.8,57,0.00,,,0.02,WUHU216HW,2013-05-20 18:51:00,
2013-05-20 13:56:00,73.5,56.8,28.27,WSW,248,3.1,10.5,56,0.00,,,0.02,WUHU216HW,2013-05-20 18:56:00,
2013-05-20 14:02:00,73.4,56.6,28.27,WSW,248,6.9,11.1,56,0.00,,,0.02,WUHU216HW,2013-05-20 19:02:00,
2013-05-20 14:07:00,73.7,57.4,28.27,SW,225,10.5,11.6,57,0.00,,,0.02,WUHU216HW,2013-05-20 19:07:00,
2013-05-20 14:12:00,73.9,57.6,28.27,SW,225,0.0,11.6,57,0.00,,,0.02,WUHU216HW,2013-05-20 19:12:00,
2013-05-20 14:17:00,73.9,57.1,28.27,SSW,203,6.4,7.8,56,0.00,,,0.02,WUHU216HW,2013-05-20 19:17:00,
2013-05-20 14:22:00,73.5,56.8,28.27,SSW,203,6.9,10.7,56,0.00,,,0.02,WUHU216HW,2013-05-20 19:22:00,
2013-05-20 14:27:00,73.9,57.6,28.27,SSW,203,7.6,10.7,57,0.00,,,0.02,WUHU216HW,2013-05-20 19:27:00,
2013-05-20 14:32:00,74.1,57.3,28.26,SW,225,10.9,20.1,56,0.00,,,0.02,WUHU216HW,2013-05-20 19:32:00,
2013-05-20 14:37:00,74.3,58.0,28.26,SSW,203,18.3,20.1,57,0.00,,,0.02,WUHU216HW,2013-05-20 19:37:00,
2013-05-20 14:42:00,74.8,58.5,28.26,SW,225,7.8,18.3,57,0.00,,,0.02,WUHU216HW,2013-05-20 19:42:00,
2013-05-20 14:47:00,74.8,58.5,28.25,SSW,203,9.1,15.4,57,0.00,,,0.02,WUHU216HW,2013-05-20 19:47:00,
2013-05-20 14:52:00,75.0,58.2,28.24,SW,225,12.7,13.1,56,0.00,,,0.02,WUHU216HW,2013-05-20 19:52:00,
2013-05-20 14:57:00,75.3,58.5,28.24,SSW,203,8.5,12.7,56,0.00,,,0.02,WUHU216HW,2013-05-20 19:57:00,
2013-05-20 15:02:00,75.3,58.0,28.24,SSW,203,6.9,12.3,55,0.00,,,0.02,WUHU216HW,2013-05-20 20:02:00,
2013-05-20 15:07:00,75.3,58.0,28.24,SW,225,9.3,10.5,55,0.00,,,0.02,WUHU216HW,2013-05-20 20:07:00,
2013-05-20 15:12:00,75.3,57.5,28.24,SW,225,10.7,10.7,54,0.00,,,0.02,WUHU216HW,2013-05-20 20:12:00,
2013-05-20 15:17:00,75.2,57.4,28.23,SW,225,13.4,13.4,54,0.00,,,0.02,WUHU216HW,2013-05-20 20:17:00,
2013-05-20 15:22:00,75.3,58.0,28.23,SW,225,9.8,13.4,55,0.00,,,0.02,WUHU216HW,2013-05-20 20:22:00,
2013-05-20 15:27:00,75.5,57.2,28.23,SW,225,10.9,19.0,53,0.00,,,0.02,WUHU216HW,2013-05-20 20:27:00,
2013-05-20 15:32:00,75.9,58.0,28.23,SW,225,11.8,19.0,54,0.00,,,0.02,WUHU216HW,2013-05-20 20:32:00,
2013-05-20 15:37:00,75.7,57.3,28.23,SW,225,14.3,14.3,53,0.00,,,0.02,WUHU216HW,2013-05-20 20:37:00,
2013-05-20 15:42:00,75.3,57.0,28.23,SSW,203,10.5,14.3,53,0.00,,,0.02,WUHU216HW,2013-05-20 20:42:00,
2013-05-20 15:47:00,75.7,57.9,28.23,SSW,203,14.3,14.3,54,0.00,,,0.02,WUHU216HW,2013-05-20 20:47:00,
2013-05-20 15:52:00,75.5,57.7,28.22,SW,225,6.2,14.3,54,0.00,,,0.02,WUHU216HW,2013-05-20 20:52:00,
2013-05-20 15:57:00,75.9,58.0,28.22,SW,225,7.6,10.7,54,0.00,,,0.02,WUHU216HW,2013-05-20 20:57:00,
2013-05-20 16:02:00,75.9,58.0,28.22,SW,225,8.9,10.0,54,0.00,,,0.02,WUHU216HW,2013-05-20 21:02:00,
2013-05-20 16:07:00,75.3,57.0,28.22,SW,225,10.0,10.0,53,0.00,,,0.02,WUHU216HW,2013-05-20 21:07:00,
2013-05-20 16:12:00,75.0,57.2,28.22,WSW,248,8.5,10.0,54,0.00,,,0.02,WUHU216HW,2013-05-20 21:12:00,
2013-05-20 16:17:00,74.8,57.0,28.22,SW,225,8.7,10.5,54,0.00,,,0.02,WUHU216HW,2013-05-20 21:17:00,
2013-05-20 16:22:00,74.4,56.6,28.22,SW,225,10.0,10.5,54,0.00,,,0.02,WUHU216HW,2013-05-20 21:22:00,
2013-05-20 16:27:00,75.0,57.7,28.21,SW,225,5.5,10.0,55,0.00,,,0.02,WUHU216HW,2013-05-20 21:27:00,
2013-05-20 16:32:00,75.0,57.5,28.21,SW,225,12.3,12.3,54,0.00,,,0.02,WUHU216HW,2013-05-20 21:32:00,
2013-05-20 16:37:00,74.8,57.0,28.21,SW,225,7.8,12.3,54,0.00,,,0.02,WUHU216HW,2013-05-20 21:37:00,
2013-05-20 16:42:00,74.4,57.2,28.21,SW,225,8.0,12.3,55,0.00,,,0.02,WUHU216HW,2013-05-20 21:42:00,
2013-05-20 16:47:00,74.8,57.5,28.21,SW,225,7.8,12.3,55,0.00,,,0.02,WUHU216HW,2013-05-20 21:47:00,
2013-05-20 16:52:00,74.8,57.5,28.21,SSW,203,8.5,8.5,55,0.00,,,0.02,WUHU216HW,2013-05-20 21:52:00,
2013-05-20 16:57:00,74.8,57.5,28.21,SW,225,9.6,9.6,55,0.00,,,0.02,WUHU216HW,2013-05-20 21:57:00,
2013-05-20 17:02:00,74.1,57.3,28.20,SW,225,9.6,14.3,56,0.00,,,0.02,WUHU216HW,2013-05-20 22:02:00,
2013-05-20 17:07:00,73.9,57.1,28.20,SSW,203,8.5,14.3,56,0.00,,,0.02,WUHU216HW,2013-05-20 22:07:00,
2013-05-20 17:12:00,73.9,57.1,28.20,SW,225,5.3,9.6,56,0.00,,,0.02,WUHU216HW,2013-05-20 22:12:00,
2013-05-20 17:17:00,73.9,56.6,28.20,SW,225,9.6,9.6,55,0.00,,,0.02,WUHU216HW,2013-05-20 22:17:00,
2013-05-20 17:22:00,73.9,56.6,28.19,SSW,203,10.2,10.2,55,0.00,,,0.02,WUHU216HW,2013-05-20 22:22:00,
2013-05-20 17:27:00,73.9,56.6,28.19,SSW,203,8.0,10.2,55,0.00,,,0.02,WUHU216HW,2013-05-20 22:27:00,
2013-05-20 17:32:00,74.1,56.3,28.19,SW,225,4.0,10.2,54,0.00,,,0.02,WUHU216HW,2013-05-20 22:32:00,
2013-05-20 17:37:00,74.3,56.0,28.19,SW,225,5.5,6.2,53,0.00,,,0.02,WUHU216HW,2013-05-20 22:37:00,
2013-05-20 17:42:00,74.4,55.6,28.19,WSW,248,3.3,10.5,52,0.00,,,0.02,WUHU216HW,2013-05-20 22:42:00,
2013-05-20 17:48:00,75.0,55.7,28.18,SW,225,0.0,10.5,51,0.00,,,0.02,WUHU216HW,2013-05-20 22:48:00,
2013-05-20 17:53:00,74.8,55.0,28.18,SW,225,4.6,10.0,50,0.00,,,0.02,WUHU216HW,2013-05-20 22:53:00,
2013-05-20 17:58:00,74.8,55.0,28.18,SW,225,7.8,10.0,50,0.00,,,0.02,WUHU216HW,2013-05-20 22:58:00,
2013-05-20 18:03:00,75.3,55.5,28.18,WSW,248,6.0,7.8,50,0.00,,,0.02,WUHU216HW,2013-05-20 23:03:00,
2013-05-20 18:08:00,75.9,56.0,28.18,SW,225,5.3,7.3,50,0.00,,,0.02,WUHU216HW,2013-05-20 23:08:00,
2013-05-20 18:13:00,76.2,56.8,28.18,SW,225,0.0,7.3,51,0.00,,,0.02,WUHU216HW,2013-05-20 23:13:00,
2013-05-20 18:18:00,77.0,57.0,28.18,SW,225,6.9,6.9,50,0.00,,,0.02,WUHU216HW,2013-05-20 23:18:00,
2013-05-20 18:23:00,77.1,56.5,28.18,SW,225,5.3,7.1,49,0.00,,,0.02,WUHU216HW,2013-05-20 23:23:00,
2013-05-20 18:28:00,76.8,55.6,28.18,SW,225,6.4,7.1,48,0.00,,,0.02,WUHU216HW,2013-05-20 23:28:00,
2013-05-20 18:33:00,75.7,54.6,28.18,SW,225,0.0,6.4,48,0.00,,,0.02,WUHU216HW,2013-05-20 23:33:00,
2013-05-20 18:38:00,75.2,54.1,28.18,SW,225,3.8,7.3,48,0.00,,,0.02,WUHU216HW,2013-05-20 23:38:00,
2013-05-20 18:43:00,74.6,54.8,28.18,West,270,5.8,7.3,50,0.00,,,0.02,WUHU216HW,2013-05-20 23:43:00,
2013-05-20 18:48:00,74.4,54.6,28.18,WSW,248,4.2,5.8,50,0.00,,,0.02,WUHU216HW,2013-05-20 23:48:00,
2013-05-20 18:53:00,74.4,54.6,28.17,SW,225,4.2,5.8,50,0.00,,,0.02,WUHU216HW,2013-05-20 23:53:00,
2013-05-20 18:58:00,74.8,54.4,28.17,WSW,248,0.0,4.2,49,0.00,,,0.02,WUHU216HW,2013-05-20 23:58:00,
2013-05-20 19:03:00,74.4,54.0,28.17,WSW,248,0.0,6.9,49,0.00,,,0.02,WUHU216HW,2013-05-21 00:03:00,
2013-05-20 19:08:00,74.3,54.0,28.18,WSW,248,0.0,6.9,49,0.00,,,0.02,WUHU216HW,2013-05-21 00:08:00,
2013-05-20 19:13:00,74.1,53.7,28.18,WSW,248,3.8,5.3,49,0.00,,,0.02,WUHU216HW,2013-05-21 00:13:00,
2013-05-20 19:18:00,73.9,53.5,28.18,West,270,0.0,5.3,49,0.00,,,0.02,WUHU216HW,2013-05-21 00:18:00,
2013-05-20 19:23:00,73.5,53.1,28.18,West,270,0.0,3.8,49,0.00,,,0.02,WUHU216HW,2013-05-21 00:23:00,
2013-05-20 19:28:00,73.2,53.4,28.18,WSW,248,0.0,0.0,50,0.00,,,0.02,WUHU216HW,2013-05-21 00:28:00,
2013-05-20 19:33:00,73.2,53.4,28.18,SW,225,0.0,5.5,50,0.00,,,0.02,WUHU216HW,2013-05-21 00:33:00,
2013-05-20 19:38:00,73.0,53.2,28.18,SW,225,0.0,5.5,50,0.00,,,0.02,WUHU216HW,2013-05-21 00:38:00,
2013-05-20 19:43:00,72.6,53.4,28.18,SW,225,0.0,0.0,51,0.00,,,0.02,WUHU216HW,2013-05-21 00:43:00,
2013-05-20 19:48:00,72.5,53.2,28.19,SW,225,0.0,0.0,51,0.00,,,0.02,WUHU216HW,2013-05-21 00:48:00,
2013-05-20 19:53:00,72.3,53.1,28.19,SW,225,0.0,0.0,51,0.00,,,0.02,WUHU216HW,2013-05-21 00:53:00,
2013-05-20 19:58:00,71.7,52.6,28.19,West,270,0.0,3.8,51,0.00,,,0.02,WUHU216HW,2013-05-21 00:58:00,
2013-05-20 20:03:00,71.4,52.3,28.19,WSW,248,3.3,3.8,51,0.00,,,0.02,WUHU216HW,2013-05-21 01:03:00,
2013-05-20 20:08:00,71.2,51.9,28.19,WSW,248,0.0,3.3,51,0.00,,,0.02,WUHU216HW,2013-05-21 01:08:00,
2013-05-20 20:13:00,70.7,52.1,28.19,WSW,248,0.0,0.0,52,0.00,,,0.02,WUHU216HW,2013-05-21 01:13:00,
2013-05-20 20:18:00,70.3,51.3,28.19,WSW,248,0.0,0.0,51,0.00,,,0.02,WUHU216HW,2013-05-21 01:18:00,
2013-05-20 20:24:00,70.1,51.8,28.19,WSW,248,0.0,0.0,52,0.00,,,0.02,WUHU216HW,2013-05-21 01:24:00,
2013-05-20 20:29:00,69.8,51.3,28.19,WSW,248,0.0,3.8,52,0.00,,,0.02,WUHU216HW,2013-05-21 01:29:00,
2013-05-20 20:34:00,69.4,51.0,28.19,WSW,248,0.0,3.8,52,0.00,,,0.02,WUHU216HW,2013-05-21 01:34:00,
2013-05-20 20:39:00,68.9,50.7,28.19,WSW,248,0.0,0.0,52,0.00,,,0.02,WUHU216HW,2013-05-21 01:39:00,
2013-05-20 20:44:00,68.7,50.8,28.19,WSW,248,0.0,0.0,53,0.00,,,0.02,WUHU216HW,2013-05-21 01:44:00,
2013-05-20 20:49:00,68.1,50.3,28.19,WSW,248,0.0,0.0,53,0.00,,,0.02,WUHU216HW,2013-05-21 01:49:00,
2013-05-20 20:54:00,67.8,50.5,28.19,WSW,248,0.0,0.0,54,0.00,,,0.02,WUHU216HW,2013-05-21 01:54:00,
2013-05-20 20:59:00,67.2,50.0,28.19,WSW,248,0.0,0.0,54,0.00,,,0.02,WUHU216HW,2013-05-21 01:59:00,
2013-05-20 21:04:00,66.9,50.1,28.20,WSW,248,0.0,0.0,55,0.00,,,0.02,WUHU216HW,2013-05-21 02:04:00,
2013-05-20 21:09:00,66.5,50.0,28.20,WSW,248,0.0,2.6,55,0.00,,,0.02,WUHU216HW,2013-05-21 02:09:00,
2013-05-20 21:14:00,66.3,49.7,28.20,WSW,248,0.0,2.6,55,0.00,,,0.02,WUHU216HW,2013-05-21 02:14:00,
2013-05-20 21:19:00,66.2,49.5,28.20,WSW,248,0.0,0.0,55,0.00,,,0.02,WUHU216HW,2013-05-21 02:19:00,
2013-05-20 21:24:00,66.0,49.8,28.20,WSW,248,0.0,0.0,56,0.00,,,0.02,WUHU216HW,2013-05-21 02:24:00,
2013-05-20 21:29:00,65.8,49.6,28.20,WSW,248,2.4,2.4,56,0.00,,,0.02,WUHU216HW,2013-05-21 02:29:00,
2013-05-20 21:34:00,65.4,49.8,28.20,WSW,248,0.0,2.4,57,0.00,,,0.02,WUHU216HW,2013-05-21 02:34:00,
2013-05-20 21:39:00,65.3,49.6,28.20,WSW,248,0.0,0.0,57,0.00,,,0.02,WUHU216HW,2013-05-21 02:39:00,
2013-05-20 21:44:00,65.1,49.4,28.20,WSW,248,0.0,0.0,57,0.00,,,0.02,WUHU216HW,2013-05-21 02:44:00,
2013-05-20 21:49:00,64.7,49.5,28.21,WSW,248,0.0,3.5,58,0.00,,,0.02,WUHU216HW,2013-05-21 02:49:00,
2013-05-20 21:54:00,64.5,49.3,28.21,SW,225,0.0,3.5,58,0.00,,,0.02,WUHU216HW,2013-05-21 02:54:00,
2013-05-20 21:59:00,64.4,49.2,28.21,WSW,248,0.0,0.0,58,0.00,,,0.02,WUHU216HW,2013-05-21 02:59:00,
2013-05-20 22:04:00,64.2,49.0,28.21,WSW,248,0.0,2.4,58,0.00,,,0.02,WUHU216HW,2013-05-21 03:04:00,
2013-05-20 22:09:00,64.0,48.8,28.21,WSW,248,0.0,2.4,58,0.00,,,0.02,WUHU216HW,2013-05-21 03:09:00,
2013-05-20 22:14:00,63.6,48.5,28.21,WSW,248,0.0,0.0,58,0.00,,,0.02,WUHU216HW,2013-05-21 03:14:00,
2013-05-20 22:19:00,63.5,48.8,28.22,WSW,248,0.0,0.0,59,0.00,,,0.02,WUHU216HW,2013-05-21 03:19:00,
2013-05-20 22:24:00,63.1,48.5,28.22,WSW,248,0.0,0.0,59,0.00,,,0.02,WUHU216HW,2013-05-21 03:24:00,
2013-05-20 22:29:00,62.9,48.8,28.22,WSW,248,0.0,0.0,60,0.00,,,0.02,WUHU216HW,2013-05-21 03:29:00,
2013-05-20 22:34:00,62.4,48.8,28.22,WSW,248,0.0,0.0,61,0.00,,,0.02,WUHU216HW,2013-05-21 03:34:00,
2013-05-20 22:39:00,62.4,48.8,28.23,WSW,248,0.0,2.2,61,0.00,,,0.02,WUHU216HW,2013-05-21 03:39:00,
2013-05-20 22:44:00,62.0,48.9,28.23,West,270,0.0,2.2,62,0.00,,,0.02,WUHU216HW,2013-05-21 03:44:00,
2013-05-20 22:49:00,61.7,48.5,28.24,West,270,0.0,0.0,62,0.00,,,0.02,WUHU216HW,2013-05-21 03:49:00,
2013-05-20 22:55:00,61.5,48.4,28.24,West,270,0.0,0.0,62,0.00,,,0.02,WUHU216HW,2013-05-21 03:55:00,
2013-05-20 23:00:00,61.3,48.6,28.23,West,270,0.0,0.0,63,0.00,,,0.02,WUHU216HW,2013-05-21 04:00:00,
2013-05-20 23:01:00,61.3,48.6,28.23,West,270,0.0,0.0,63,0.00,,,0.02,WUHU216HW,2013-05-21 04:01:00,
2013-05-20 23:06:00,60.9,48.7,28.23,West,270,0.0,0.0,64,0.00,,,0.02,WUHU216HW,2013-05-21 04:06:00,
2013-05-20 23:11:00,60.9,49.1,28.22,SW,225,2.9,2.9,65,0.00,,,0.02,WUHU216HW,2013-05-21 04:11:00,
2013-05-20 23:16:00,60.8,49.4,28.22,SW,225,3.8,3.8,66,0.00,,,0.02,WUHU216HW,2013-05-21 04:16:00,
2013-05-20 23:21:00,60.6,49.2,28.22,SW,225,0.0,3.8,66,0.00,,,0.02,WUHU216HW,2013-05-21 04:21:00,
2013-05-20 23:26:00,60.6,49.2,28.22,SW,225,0.0,0.0,66,0.00,,,0.02,WUHU216HW,2013-05-21 04:26:00,
2013-05-20 23:31:00,60.4,49.0,28.22,SW,225,0.0,0.0,66,0.00,,,0.02,WUHU216HW,2013-05-21 04:31:00,
2013-05-20 23:37:00,60.4,49.4,28.22,WSW,248,0.0,0.0,67,0.00,,,0.02,WUHU216HW,2013-05-21 04:37:00,
2013-05-20 23:42:00,60.0,49.5,28.22,WSW,248,0.0,0.0,68,0.00,,,0.02,WUHU216HW,2013-05-21 04:42:00,
2013-05-20 23:47:00,60.0,49.9,28.23,WSW,248,0.0,0.0,69,0.00,,,0.02,WUHU216HW,2013-05-21 04:47:00,
2013-05-20 23:52:00,60.2,50.5,28.23,WSW,248,2.4,2.4,70,0.00,,,0.02,WUHU216HW,2013-05-21 04:52:00,
2013-05-20 23:57:00,60.4,50.7,28.23,WSW,248,0.0,2.4,70,0.00,,,0.02,WUHU216HW,2013-05-21 04:57:00,